Franklin, Wisconsin
Current Conditions -  °F | °C
As of 9:52 AM on Friday 21 Nov 2014 (Local Time) from KMKE Reporting Station
Few Clouds Few Clouds  
Wind Chill:   Ceiling: Unl
Heat Index: 21°   Visibility: 10mi
Dew Point:   Wind: 12mph
Humidity: 44%   Direction: 210°SSW
Pressure: 30.43"   Gusts: NA
Location:  42.9°N, 88.03°W
Report Text: KMKE 211552Z 21010KT 10SM FEW250 M06/M17 A3043 RMK AO2 SLP318 T10611167
Loading
Personal Weather Stations






























Interactive Weather Map New forecast layout! Learn more

10-Day Weather Forecast

Advertisements
Track Severe Weather on mobile